Pleasant Hills, Arkansas
Current Conditions -  °F | °C
As of 7:35 AM on Sunday 21 Dec 2014 (Local Time) from KCCA Reporting Station
Haze Haze  
Wind Chill: 39°   Ceiling: 4100
Heat Index: 39°   Visibility: 5mi
Dew Point: 36°   Wind: 0mph
Humidity: 87%   Direction: NA
Pressure: 30.21"   Gusts: NA
Location:  35.944°N, 92.3325°W
Report Text: KCCA 211335Z AUTO 00000KT 5SM BR FEW026 OVC041 04/02 A3021 RMK AO2
Loading
Personal Weather Stations






























Interactive Weather Map New forecast layout! Learn more

10-Day Weather Forecast

Advertisements
Track Severe Weather on mobile